createdAt,value
2023-12-04T00:00:00.121Z,16.45
2023-12-04T00:05:05.512Z,18.85
2023-12-04T00:10:11.197Z,17.20
2023-12-04T00:15:15.929Z,10.87
2023-12-04T00:20:20.534Z,10.93
2023-12-04T00:25:25.613Z,21.05
2023-12-04T00:30:30.740Z,17.73
2023-12-04T00:35:35.203Z,30.13
2023-12-04T00:40:39.827Z,23.13
2023-12-04T00:45:44.959Z,24.75
2023-12-04T00:50:50.497Z,15.65
2023-12-04T00:55:55.419Z,13.32
2023-12-04T01:01:00.325Z,28.80
2023-12-04T01:06:05.046Z,17.08
2023-12-04T01:11:10.432Z,17.70
2023-12-04T01:16:16.783Z,20.40
2023-12-04T01:26:25.874Z,24.05
2023-12-04T01:31:30.773Z,13.13
2023-12-04T01:36:35.468Z,13.23
2023-12-04T01:41:40.275Z,16.27
2023-12-04T01:46:45.356Z,21.45
2023-12-04T01:51:50.090Z,15.43
2023-12-04T01:56:55.080Z,23.33
2023-12-04T02:01:59.911Z,17.60
2023-12-04T02:07:05.043Z,21.42
2023-12-04T02:12:09.858Z,10.30
2023-12-04T02:17:15.299Z,16.77
2023-12-04T02:22:20.706Z,16.03
2023-12-04T02:27:40.143Z,26.33
2023-12-04T02:32:48.635Z,20.67
2023-12-04T02:37:55.589Z,22.08
2023-12-04T02:43:00.229Z,23.83
2023-12-04T02:48:04.991Z,26.08
2023-12-04T02:53:09.678Z,15.35
2023-12-04T02:58:14.497Z,18.42
2023-12-04T03:03:19.585Z,17.48
2023-12-04T03:08:24.181Z,18.00
2023-12-04T03:13:28.884Z,25.15
2023-12-04T03:18:33.658Z,20.33
2023-12-04T03:23:38.667Z,12.07
2023-12-04T03:28:43.555Z,24.98
2023-12-04T03:33:48.218Z,20.08
2023-12-04T03:38:52.692Z,20.05
2023-12-04T03:43:57.249Z,25.50
2023-12-04T03:49:02.660Z,17.15
2023-12-04T03:54:07.413Z,32.97
2023-12-04T03:59:13.039Z,34.03
2023-12-04T04:04:17.665Z,12.23
2023-12-04T04:09:22.692Z,21.88
2023-12-04T04:14:27.159Z,36.80
2023-12-04T04:19:32.824Z,30.77
2023-12-04T04:24:37.680Z,21.33
2023-12-04T04:29:42.604Z,22.35
2023-12-04T04:34:47.389Z,29.65
2023-12-04T04:39:51.918Z,16.48
2023-12-04T04:44:56.857Z,20.02
2023-12-04T04:50:01.773Z,30.52
2023-12-04T04:55:08.249Z,14.48
2023-12-04T05:00:13.954Z,26.83
2023-12-04T05:05:18.578Z,20.20
2023-12-04T05:10:23.391Z,26.50
2023-12-04T05:15:28.225Z,22.02
2023-12-04T05:20:33.196Z,28.48
2023-12-04T05:25:44.856Z,25.00
2023-12-04T05:30:52.798Z,30.23
2023-12-04T05:35:57.543Z,32.90
2023-12-04T05:41:03.041Z,19.10
2023-12-04T05:46:07.952Z,33.23
2023-12-04T05:51:13.639Z,30.60
2023-12-04T05:56:18.402Z,18.33
2023-12-04T06:01:23.105Z,15.02
2023-12-04T06:06:27.912Z,17.08
2023-12-04T06:11:32.457Z,27.98
2023-12-04T06:16:37.237Z,22.88
2023-12-04T06:21:42.178Z,23.80
2023-12-04T06:26:48.556Z,26.13
2023-12-04T06:36:59.193Z,25.73
2023-12-04T06:42:04.289Z,23.02
2023-12-04T06:47:11.263Z,24.30
2023-12-04T06:52:15.996Z,16.67
2023-12-04T06:57:20.565Z,22.00
2023-12-04T07:02:25.119Z,19.27
2023-12-04T07:07:30.157Z,21.50
2023-12-04T07:12:35.029Z,19.77
2023-12-04T07:17:40.353Z,21.10
2023-12-04T07:22:44.947Z,15.15
2023-12-04T07:27:49.957Z,19.85
2023-12-04T07:32:55.805Z,18.80
2023-12-04T07:38:00.357Z,19.43
2023-12-04T07:43:05.055Z,18.23
2023-12-04T07:48:10.245Z,18.23
2023-12-04T07:53:15.539Z,11.45
2023-12-04T07:58:20.887Z,17.20
2023-12-04T08:03:26.131Z,17.58
2023-12-04T08:08:30.836Z,16.55
2023-12-04T08:13:35.360Z,15.77
2023-12-04T08:18:39.974Z,13.57
2023-12-04T08:23:44.662Z,16.13
2023-12-04T08:28:50.260Z,15.52
2023-12-04T08:33:55.134Z,14.47
2023-12-04T08:38:59.881Z,14.38
2023-12-04T08:44:04.850Z,15.13
2023-12-04T08:49:09.579Z,14.23
2023-12-04T08:54:17.531Z,13.95
2023-12-04T08:59:23.175Z,12.52
2023-12-04T09:04:28.876Z,12.38
2023-12-04T09:09:34.691Z,9.80
2023-12-04T09:14:39.755Z,13.50
2023-12-04T09:19:45.054Z,13.73
2023-12-04T09:24:49.839Z,11.60
2023-12-04T09:29:54.694Z,11.02
2023-12-04T09:34:59.295Z,12.88
2023-12-04T09:40:03.954Z,10.38
2023-12-04T09:45:10.562Z,11.63
2023-12-04T09:50:15.455Z,12.02
2023-12-04T09:55:20.744Z,12.07
2023-12-04T10:00:26.298Z,12.65
2023-12-04T10:05:31.402Z,9.98
2023-12-04T10:10:36.816Z,12.18
2023-12-04T10:15:52.257Z,10.02
2023-12-04T10:20:57.238Z,10.88
2023-12-04T10:26:03.552Z,9.70
2023-12-04T10:31:09.198Z,10.63
2023-12-04T10:36:17.035Z,11.00
2023-12-04T10:41:21.885Z,12.25
2023-12-04T10:46:30.480Z,12.88
2023-12-04T10:51:36.621Z,11.70
2023-12-04T10:56:43.479Z,9.27
2023-12-04T11:01:51.214Z,10.38
2023-12-04T11:06:58.211Z,9.93
2023-12-04T11:12:08.724Z,11.65
2023-12-04T11:17:16.629Z,11.15
2023-12-04T11:22:23.808Z,12.43
2023-12-04T11:27:29.271Z,11.40
2023-12-04T11:32:34.693Z,11.10
2023-12-04T11:37:41.075Z,11.93
2023-12-04T11:48:00.597Z,10.45
2023-12-04T11:53:06.498Z,13.20
2023-12-04T11:58:15.332Z,11.05
2023-12-04T12:03:24.541Z,8.63
2023-12-04T12:08:31.621Z,10.68
2023-12-04T12:13:36.814Z,13.95
2023-12-04T12:18:44.459Z,13.02
2023-12-04T12:23:54.328Z,12.07
2023-12-04T12:28:59.326Z,11.38
2023-12-04T12:34:05.277Z,9.65
2023-12-04T12:39:10.897Z,13.25
2023-12-04T12:44:16.086Z,13.10
2023-12-04T12:49:32.788Z,12.02
2023-12-04T12:54:46.434Z,11.13
2023-12-04T12:59:51.707Z,10.20
2023-12-04T13:04:58.375Z,10.77
2023-12-04T13:10:03.229Z,11.90
2023-12-04T13:15:08.647Z,13.73
2023-12-04T13:20:15.483Z,13.85
2023-12-04T13:25:20.564Z,10.52
2023-12-04T13:30:25.685Z,12.32
2023-12-04T13:35:31.532Z,10.98
2023-12-04T13:40:37.062Z,11.67
2023-12-04T13:45:42.241Z,12.75
2023-12-04T13:50:46.887Z,11.00
2023-12-04T13:55:57.515Z,10.57
2023-12-04T14:01:09.113Z,13.40
2023-12-04T14:06:14.872Z,10.20
2023-12-04T14:11:20.182Z,9.88
2023-12-04T14:16:25.132Z,11.65
2023-12-04T14:21:31.006Z,10.63
2023-12-04T14:26:36.036Z,13.27
2023-12-04T14:31:40.945Z,7.35
2023-12-04T14:36:46.459Z,10.77
2023-12-04T14:41:51.445Z,11.63
2023-12-04T14:46:56.183Z,9.10
2023-12-04T14:52:02.933Z,8.90
2023-12-04T14:57:26.468Z,9.77
2023-12-04T15:02:34.197Z,6.13
2023-12-04T15:07:57.008Z,11.98
2023-12-04T15:13:28.995Z,13.13
2023-12-04T15:18:45.592Z,12.82
2023-12-04T15:23:52.688Z,11.13
2023-12-04T15:28:57.440Z,10.73
2023-12-04T15:34:02.287Z,10.05
2023-12-04T15:39:11.530Z,8.73
2023-12-04T15:44:17.004Z,9.15
2023-12-04T15:49:21.980Z,10.90
2023-12-04T15:54:26.913Z,9.13
2023-12-04T15:59:31.642Z,10.52
2023-12-04T16:04:37.907Z,11.38
2023-12-04T16:09:42.908Z,10.90
2023-12-04T16:14:47.666Z,10.23
2023-12-04T16:19:52.586Z,10.40
2023-12-04T16:24:57.499Z,10.77
2023-12-04T16:30:02.425Z,9.15
2023-12-04T16:35:08.290Z,9.30
2023-12-04T16:40:13.768Z,9.07
2023-12-04T16:45:18.702Z,8.57
2023-12-04T16:50:23.207Z,9.43
2023-12-04T16:55:27.953Z,11.07
2023-12-04T17:00:32.722Z,11.25
2023-12-04T17:05:38.392Z,9.52
2023-12-04T17:10:43.359Z,9.50
2023-12-04T17:15:48.281Z,10.32
2023-12-04T17:20:53.147Z,11.95
2023-12-04T17:25:58.544Z,13.30
2023-12-04T17:31:03.361Z,9.70
2023-12-04T17:36:08.871Z,10.27
2023-12-04T17:41:14.544Z,9.98
2023-12-04T17:46:19.219Z,8.83
2023-12-04T17:51:24.222Z,9.90
2023-12-04T17:56:29.277Z,10.38
2023-12-04T18:01:34.304Z,9.02
2023-12-04T18:06:39.996Z,10.07
2023-12-04T18:11:44.746Z,8.97
2023-12-04T18:16:49.336Z,12.57
2023-12-04T18:21:54.465Z,9.52
2023-12-04T18:26:59.390Z,9.07
2023-12-04T18:32:04.542Z,9.65
2023-12-04T18:37:15.918Z,9.40
2023-12-04T18:42:21.099Z,9.38
2023-12-04T18:47:29.716Z,10.90
2023-12-04T18:52:35.892Z,9.82
2023-12-04T18:57:40.677Z,10.88
2023-12-04T19:02:45.365Z,10.60
2023-12-04T19:07:49.978Z,10.75
2023-12-04T19:12:54.583Z,7.78
2023-12-04T19:18:00.779Z,9.75
2023-12-04T19:23:05.607Z,11.33
2023-12-04T19:28:10.277Z,10.52
2023-12-04T19:33:18.579Z,5.07
2023-12-04T19:38:30.770Z,11.15
2023-12-04T19:43:35.474Z,8.13
2023-12-04T19:48:40.323Z,12.43
2023-12-04T19:53:45.024Z,7.65
2023-12-04T19:58:49.920Z,10.57
2023-12-04T20:03:54.855Z,9.73
2023-12-04T20:08:59.671Z,11.57
2023-12-04T20:14:05.753Z,16.10
2023-12-04T20:19:10.751Z,11.00
2023-12-04T20:24:16.989Z,14.68
2023-12-04T20:29:21.628Z,12.68
2023-12-04T20:34:26.471Z,15.38
2023-12-04T20:39:31.174Z,15.25
2023-12-04T20:44:38.692Z,10.45
2023-12-04T20:49:43.291Z,18.25
2023-12-04T20:54:48.593Z,13.20
2023-12-04T20:59:53.272Z,12.50
2023-12-04T21:04:57.858Z,11.73
2023-12-04T21:10:02.588Z,13.15
2023-12-04T21:15:08.209Z,16.83
2023-12-04T21:20:13.257Z,15.63
2023-12-04T21:25:17.949Z,16.33
2023-12-04T21:30:22.767Z,16.88
2023-12-04T21:35:27.507Z,15.90
2023-12-04T21:40:32.224Z,17.92
2023-12-04T21:45:36.935Z,18.13
2023-12-04T21:50:41.645Z,17.52
2023-12-04T21:55:46.345Z,14.55
2023-12-04T22:00:51.236Z,16.48
2023-12-04T22:05:56.066Z,13.98
2023-12-04T22:11:01.485Z,17.55
2023-12-04T22:16:06.457Z,14.25
2023-12-04T22:21:11.594Z,13.55
2023-12-04T22:26:17.428Z,14.27
2023-12-04T22:31:22.323Z,21.53
2023-12-04T22:36:27.003Z,16.60
2023-12-04T22:41:31.913Z,19.27
2023-12-04T22:46:36.389Z,19.25
2023-12-04T22:51:40.925Z,17.08
2023-12-04T22:56:45.555Z,19.77
2023-12-04T23:01:50.298Z,22.73
2023-12-04T23:06:56.050Z,20.20
2023-12-04T23:12:00.871Z,20.50
2023-12-04T23:17:05.641Z,16.30
2023-12-04T23:22:10.409Z,15.00
2023-12-04T23:27:24.598Z,16.40
2023-12-04T23:32:33.040Z,16.02
2023-12-04T23:37:37.604Z,19.05
2023-12-04T23:42:42.281Z,18.73
2023-12-04T23:47:46.928Z,22.67
2023-12-04T23:52:51.656Z,19.85
2023-12-04T23:57:56.287Z,18.00
